^^
Station Historical Data
Daily Summary for August 25, 2017 Units:  Both    English   Metric
« Previous Day
Next Day »
Daily Weekly Monthly Yearly Custom
  High: Low: Average:
Temperature: TemperatureF °F /  -17.8 °C 40.1 °F /  4.5 °C 60.2 °F /  15.7 °C
Dew Point: DewpointF °F /  -17.8 °C -4.5 °F /  -20.3 °C 6 °F /  -14.4 °C
Humidity: Humidity% 4% 13%
Wind Speed: WindSpeedMPHmph /  0km/h - 0.8mph /  1.3km/h
Wind Gust: WindSpeedGustMPHmph /  0km/h - -
Wind- - SSE
Pressure: PressureIn in /  0 hPa 29.90 in /  1012.4 hPa -
Precipitation: 0.00 in /  0 mm    
Historical Graphs
 
 
Tabular Data for August 25, 2017
Time Temperature Dew Point Pressure Wind Wind Speed Wind Gust Humidity Rainfall Rate (Hourly) solar Conditions
TemperatureF °F /  -17.8 °C DewpointF °F /  -17.8 °C PressureInin /  0hPa Calm     Humidity% HourlyPrecipInin /  0mm SolarRadiationWatts/m^2 W/m2 Conditions
00:00 45.1 °F /  7.3 °C 11.5 °F /  -11.4 °C 29.97in /  1014.8hPa Calm     25% 0.00in /  0mm 0.0 W/m2
00:07 45.3 °F /  7.4 °C 10.6 °F /  -11.9 °C 29.97in /  1014.8hPa Calm     24% 0.00in /  0mm 0.0 W/m2
00:13 45.9 °F /  7.7 °C 10.2 °F /  -12.1 °C 29.97in /  1014.8hPa Calm     23% 0.00in /  0mm 0.0 W/m2
00:19 46.2 °F /  7.9 °C 9.5 °F /  -12.5 °C 29.97in /  1014.8hPa Calm     22% 0.00in /  0mm 0.0 W/m2
00:25 46.4 °F /  8 °C 9.7 °F /  -12.4 °C 29.96in /  1014.4hPa Calm     22% 0.00in /  0mm 0.0 W/m2
00:31 46.0 °F /  7.8 °C 10.2 °F /  -12.1 °C 29.96in /  1014.4hPa Calm     23% 0.00in /  0mm 0.0 W/m2
00:37 45.9 °F /  7.7 °C 10.2 °F /  -12.1 °C 29.96in /  1014.4hPa Calm     23% 0.00in /  0mm 0.0 W/m2
00:44 45.7 °F /  7.6 °C 10.0 °F /  -12.2 °C 29.96in /  1014.4hPa Calm     23% 0.00in /  0mm 0.0 W/m2
00:50 45.5 °F /  7.5 °C 9.9 °F /  -12.3 °C 29.96in /  1014.4hPa Calm     23% 0.00in /  0mm 0.0 W/m2
00:56 45.7 °F /  7.6 °C 9.0 °F /  -12.8 °C 29.96in /  1014.4hPa Calm     22% 0.00in /  0mm 0.0 W/m2
01:02 45.7 °F /  7.6 °C 9.0 °F /  -12.8 °C 29.96in /  1014.4hPa Calm     22% 0.00in /  0mm 0.0 W/m2
01:08 45.1 °F /  7.3 °C 8.6 °F /  -13 °C 29.96in /  1014.4hPa Calm     22% 0.00in /  0mm 0.0 W/m2
01:14 44.8 °F /  7.1 °C 8.2 °F /  -13.2 °C 29.95in /  1014.1hPa Calm     22% 0.00in /  0mm 0.0 W/m2
01:20 44.2 °F /  6.8 °C 8.8 °F /  -12.9 °C 29.95in /  1014.1hPa Calm     23% 0.00in /  0mm 0.0 W/m2
01:26 43.9 °F /  6.6 °C 9.3 °F /  -12.6 °C 29.95in /  1014.1hPa Calm   3.0mph /  4.8km/h 24% 0.00in /  0mm 0.0 W/m2
01:32 43.5 °F /  6.4 °C 8.2 °F /  -13.2 °C 29.95in /  1014.1hPa Calm     23% 0.00in /  0mm 0.0 W/m2
01:39 43.5 °F /  6.4 °C 8.2 °F /  -13.2 °C 29.95in /  1014.1hPa Calm     23% 0.00in /  0mm 0.0 W/m2
01:45 43.3 °F /  6.3 °C 8.1 °F /  -13.3 °C 29.95in /  1014.1hPa Calm     23% 0.00in /  0mm 0.0 W/m2
01:51 43.3 °F /  6.3 °C 8.1 °F /  -13.3 °C 29.95in /  1014.1hPa Calm     23% 0.00in /  0mm 0.0 W/m2
01:57 43.2 °F /  6.2 °C 7.9 °F /  -13.4 °C 29.95in /  1014.1hPa Calm     23% 0.00in /  0mm 0.0 W/m2
02:03 43.2 °F /  6.2 °C 6.8 °F /  -14 °C 29.95in /  1014.1hPa Calm   1.0mph /  1.6km/h 22% 0.00in /  0mm 0.0 W/m2
02:09 43.3 °F /  6.3 °C 6.1 °F /  -14.4 °C 29.95in /  1014.1hPa Calm   2.0mph /  3.2km/h 21% 0.00in /  0mm 0.0 W/m2
02:15 43.5 °F /  6.4 °C 5.0 °F /  -15 °C 29.95in /  1014.1hPa Calm   3.0mph /  4.8km/h 20% 0.00in /  0mm 0.0 W/m2
02:21 44.2 °F /  6.8 °C 5.7 °F /  -14.6 °C 29.96in /  1014.4hPa Calm     20% 0.00in /  0mm 0.0 W/m2
02:27 44.4 °F /  6.9 °C 5.9 °F /  -14.5 °C 29.96in /  1014.4hPa Calm     20% 0.00in /  0mm 0.0 W/m2
02:34 44.4 °F /  6.9 °C 4.6 °F /  -15.2 °C 29.95in /  1014.1hPa Calm     19% 0.00in /  0mm 0.0 W/m2
02:40 44.2 °F /  6.8 °C 5.7 °F /  -14.6 °C 29.95in /  1014.1hPa Calm     20% 0.00in /  0mm 0.0 W/m2
02:46 44.1 °F /  6.7 °C 5.5 °F /  -14.7 °C 29.95in /  1014.1hPa Calm     20% 0.00in /  0mm 0.0 W/m2
02:52 43.5 °F /  6.4 °C 6.1 °F /  -14.4 °C 29.95in /  1014.1hPa Calm     21% 0.00in /  0mm 0.0 W/m2
02:58 43.0 °F /  6.1 °C 3.6 °F /  -15.8 °C 29.95in /  1014.1hPa Calm   3.0mph /  4.8km/h 19% 0.00in /  0mm 0.0 W/m2
03:04 43.0 °F /  6.1 °C 2.3 °F /  -16.5 °C 29.95in /  1014.1hPa Calm   1.0mph /  1.6km/h 18% 0.00in /  0mm 0.0 W/m2
03:11 43.2 °F /  6.2 °C 2.5 °F /  -16.4 °C 29.95in /  1014.1hPa Calm   3.0mph /  4.8km/h 18% 0.00in /  0mm 0.0 W/m2
03:17 43.5 °F /  6.4 °C 2.8 °F /  -16.2 °C 29.95in /  1014.1hPa ESE 0.9mph /  1.4km/h 4.0mph /  6.4km/h 18% 0.00in /  0mm 0.0 W/m2
03:23 43.9 °F /  6.6 °C 1.9 °F /  -16.7 °C 29.95in /  1014.1hPa Calm   1.0mph /  1.6km/h 17% 0.00in /  0mm 0.0 W/m2
03:29 43.9 °F /  6.6 °C 1.9 °F /  -16.7 °C 29.95in /  1014.1hPa Calm   1.0mph /  1.6km/h 17% 0.00in /  0mm 0.0 W/m2
03:37 44.1 °F /  6.7 °C 1.9 °F /  -16.7 °C 29.95in /  1014.1hPa Calm   1.0mph /  1.6km/h 17% 0.00in /  0mm 0.0 W/m2
03:43 44.1 °F /  6.7 °C 1.9 °F /  -16.7 °C 29.95in /  1014.1hPa Calm   1.0mph /  1.6km/h 17% 0.00in /  0mm 0.0 W/m2
03:49 44.1 °F /  6.7 °C 1.9 °F /  -16.7 °C 29.94in /  1013.8hPa Calm   1.0mph /  1.6km/h 17% 0.00in /  0mm 0.0 W/m2
03:55 44.1 °F /  6.7 °C 1.9 °F /  -16.7 °C 29.94in /  1013.8hPa Calm   1.0mph /  1.6km/h 17% 0.00in /  0mm 0.0 W/m2
04:02 44.2 °F /  6.8 °C 2.1 °F /  -16.6 °C 29.94in /  1013.8hPa Calm     17% 0.00in /  0mm 0.0 W/m2
04:08 44.1 °F /  6.7 °C 1.9 °F /  -16.7 °C 29.94in /  1013.8hPa Calm     17% 0.00in /  0mm 0.0 W/m2
04:14 43.5 °F /  6.4 °C 1.6 °F /  -16.9 °C 29.94in /  1013.8hPa Calm     17% 0.00in /  0mm 0.0 W/m2
04:20 43.3 °F /  6.3 °C 2.7 °F /  -16.3 °C 29.94in /  1013.8hPa Calm     18% 0.00in /  0mm 0.0 W/m2
04:26 43.2 °F /  6.2 °C 2.5 °F /  -16.4 °C 29.95in /  1014.1hPa Calm     18% 0.00in /  0mm 0.0 W/m2
04:32 42.6 °F /  5.9 °C 3.2 °F /  -16 °C 29.95in /  1014.1hPa Calm     19% 0.00in /  0mm 0.0 W/m2
04:38 42.3 °F /  5.7 °C 0.5 °F /  -17.5 °C 29.95in /  1014.1hPa Calm     17% 0.00in /  0mm 0.0 W/m2
04:45 41.7 °F /  5.4 °C 2.5 °F /  -16.4 °C 29.95in /  1014.1hPa Calm     19% 0.00in /  0mm 0.0 W/m2
04:51 41.4 °F /  5.2 °C 1.0 °F /  -17.2 °C 29.95in /  1014.1hPa Calm     18% 0.00in /  0mm 0.0 W/m2
04:57 41.2 °F /  5.1 °C 0.9 °F /  -17.3 °C 29.96in /  1014.4hPa Calm     18% 0.00in /  0mm 0.0 W/m2
05:03 41.2 °F /  5.1 °C -0.4 °F /  -18 °C 29.96in /  1014.4hPa Calm     17% 0.00in /  0mm 0.0 W/m2
05:09 41.0 °F /  5 °C 0.7 °F /  -17.4 °C 29.96in /  1014.4hPa Calm     18% 0.00in /  0mm 0.0 W/m2
05:15 40.6 °F /  4.8 °C 0.5 °F /  -17.5 °C 29.96in /  1014.4hPa Calm     18% 0.00in /  0mm 0.0 W/m2
05:22 40.5 °F /  4.7 °C 1.4 °F /  -17 °C 29.96in /  1014.4hPa Calm     19% 0.00in /  0mm 0.0 W/m2
05:29 40.3 °F /  4.6 °C 0.1 °F /  -17.7 °C 29.96in /  1014.4hPa Calm     18% 0.00in /  0mm 0.0 W/m2
05:36 40.1 °F /  4.5 °C 1.0 °F /  -17.2 °C 29.96in /  1014.4hPa Calm     19% 0.00in /  0mm 0.0 W/m2
05:42 40.3 °F /  4.6 °C 0.1 °F /  -17.7 °C 29.96in /  1014.4hPa Calm   1.0mph /  1.6km/h 18% 0.00in /  0mm 0.0 W/m2
05:48 40.5 °F /  4.7 °C 1.4 °F /  -17 °C 29.97in /  1014.8hPa Calm   1.0mph /  1.6km/h 19% 0.00in /  0mm 0.0 W/m2
05:54 40.6 °F /  4.8 °C 0.5 °F /  -17.5 °C 29.97in /  1014.8hPa Calm   1.0mph /  1.6km/h 18% 0.00in /  0mm 0.0 W/m2
06:00 41.2 °F /  5.1 °C 3.2 °F /  -16 °C 29.97in /  1014.8hPa Calm     20% 0.00in /  0mm 0.0 W/m2
06:07 41.4 °F /  5.2 °C 3.2 °F /  -16 °C 29.97in /  1014.8hPa Calm   2.0mph /  3.2km/h 20% 0.00in /  0mm 0.0 W/m2
06:13 41.5 °F /  5.3 °C 4.5 °F /  -15.3 °C 29.98in /  1015.1hPa Calm   1.0mph /  1.6km/h 21% 0.00in /  0mm 5.0 W/m2
06:19 41.7 °F /  5.4 °C 3.6 °F /  -15.8 °C 29.98in /  1015.1hPa Calm     20% 0.00in /  0mm 7.0 W/m2
06:25 41.9 °F /  5.5 °C 3.7 °F /  -15.7 °C 29.98in /  1015.1hPa Calm     20% 0.00in /  0mm 11.0 W/m2
06:31 41.5 °F /  5.3 °C 4.5 °F /  -15.3 °C 29.98in /  1015.1hPa Calm     21% 0.00in /  0mm 12.0 W/m2
06:38 41.0 °F /  5 °C 5.0 °F /  -15 °C 29.98in /  1015.1hPa Calm     22% 0.00in /  0mm 14.0 W/m2
06:43 40.5 °F /  4.7 °C 5.5 °F /  -14.7 °C 29.98in /  1015.1hPa Calm     23% 0.00in /  0mm 16.0 W/m2
06:49 40.5 °F /  4.7 °C 6.4 °F /  -14.2 °C 29.98in /  1015.1hPa Calm     24% 0.00in /  0mm 16.0 W/m2
06:56 40.6 °F /  4.8 °C 6.6 °F /  -14.1 °C 29.98in /  1015.1hPa Calm     24% 0.00in /  0mm 18.0 W/m2
07:02 41.4 °F /  5.2 °C 6.3 °F /  -14.3 °C 29.98in /  1015.1hPa Calm     23% 0.00in /  0mm 19.0 W/m2
07:08 42.1 °F /  5.6 °C 7.0 °F /  -13.9 °C 29.98in /  1015.1hPa Calm     23% 0.00in /  0mm 21.0 W/m2
07:14 43.0 °F /  6.1 °C 7.7 °F /  -13.5 °C 29.99in /  1015.5hPa Calm     23% 0.00in /  0mm 21.0 W/m2
07:20 43.9 °F /  6.6 °C 8.4 °F /  -13.1 °C 29.99in /  1015.5hPa Calm   1.0mph /  1.6km/h 23% 0.00in /  0mm 23.0 W/m2
07:26 45.0 °F /  7.2 °C 8.4 °F /  -13.1 °C 29.99in /  1015.5hPa Calm     22% 0.00in /  0mm 25.0 W/m2
07:33 45.9 °F /  7.7 °C 10.2 °F /  -12.1 °C 29.99in /  1015.5hPa Calm     23% 0.00in /  0mm 25.0 W/m2
07:38 47.1 °F /  8.4 °C 10.2 °F /  -12.1 °C 30.00in /  1015.8hPa Calm     22% 0.00in /  0mm 26.0 W/m2
07:45 48.4 °F /  9.1 °C 12.2 °F /  -11 °C 30.00in /  1015.8hPa Calm   1.0mph /  1.6km/h 23% 0.00in /  0mm 26.0 W/m2
07:51 49.5 °F /  9.7 °C 12.2 °F /  -11 °C 30.00in /  1015.8hPa Calm   1.0mph /  1.6km/h 22% 0.00in /  0mm 28.0 W/m2
07:57 50.7 °F /  10.4 °C 11.1 °F /  -11.6 °C 30.00in /  1015.8hPa Calm   1.0mph /  1.6km/h 20% 0.00in /  0mm 30.0 W/m2
08:03 52.3 °F /  11.3 °C 11.3 °F /  -11.5 °C 30.00in /  1015.8hPa Calm     19% 0.00in /  0mm 30.0 W/m2
08:09 53.6 °F /  12 °C 12.4 °F /  -10.9 °C 30.00in /  1015.8hPa Calm   1.0mph /  1.6km/h 19% 0.00in /  0mm 33.0 W/m2
08:15 54.7 °F /  12.6 °C 10.8 °F /  -11.8 °C 30.00in /  1015.8hPa Calm     17% 0.00in /  0mm 33.0 W/m2
08:21 55.8 °F /  13.2 °C 12.9 °F /  -10.6 °C 30.00in /  1015.8hPa Calm   1.0mph /  1.6km/h 18% 0.00in /  0mm 33.0 W/m2
08:28 57.6 °F /  14.2 °C 14.4 °F /  -9.8 °C 30.00in /  1015.8hPa NE 2.0mph /  3.2km/h 3.0mph /  4.8km/h 18% 0.00in /  0mm 35.0 W/m2
08:34 59.7 °F /  15.4 °C 14.9 °F /  -9.5 °C 30.00in /  1015.8hPa Calm   6.0mph /  9.7km/h 17% 0.00in /  0mm 111.0 W/m2
08:40 61.7 °F /  16.5 °C 13.6 °F /  -10.2 °C 30.01in /  1016.1hPa East 2.0mph /  3.2km/h 5.0mph /  8km/h 15% 0.00in /  0mm 522.0 W/m2
08:46 63.5 °F /  17.5 °C 15.1 °F /  -9.4 °C 30.01in /  1016.1hPa ENE 0.9mph /  1.4km/h 9.0mph /  14.5km/h 15% 0.00in /  0mm 540.0 W/m2
08:52 65.3 °F /  18.5 °C 14.9 °F /  -9.5 °C 30.00in /  1015.8hPa Calm   6.0mph /  9.7km/h 14% 0.00in /  0mm 561.0 W/m2
08:58 66.6 °F /  19.2 °C 14.2 °F /  -9.9 °C 30.01in /  1016.1hPa NE 2.9mph /  4.7km/h 7.0mph /  11.3km/h 13% 0.00in /  0mm 584.0 W/m2
09:04 67.6 °F /  19.8 °C 13.3 °F /  -10.4 °C 30.01in /  1016.1hPa Calm   4.0mph /  6.4km/h 12% 0.00in /  0mm 599.0 W/m2
09:11 68.2 °F /  20.1 °C 15.4 °F /  -9.2 °C 30.00in /  1015.8hPa Calm   5.0mph /  8km/h 13% 0.00in /  0mm 617.0 W/m2
09:17 68.7 °F /  20.4 °C 12.0 °F /  -11.1 °C 30.00in /  1015.8hPa Calm   5.0mph /  8km/h 11% 0.00in /  0mm 635.0 W/m2
09:23 69.6 °F /  20.9 °C 8.2 °F /  -13.2 °C 30.00in /  1015.8hPa East 2.9mph /  4.7km/h 6.0mph /  9.7km/h 9% 0.00in /  0mm 649.0 W/m2
09:29 70.0 °F /  21.1 °C 8.6 °F /  -13 °C 30.00in /  1015.8hPa Calm   1.0mph /  1.6km/h 9% 0.00in /  0mm 666.0 W/m2
09:35 70.5 °F /  21.4 °C 9.0 °F /  -12.8 °C 30.00in /  1015.8hPa NNE 0.9mph /  1.4km/h 5.0mph /  8km/h 9% 0.00in /  0mm 682.0 W/m2
09:41 71.2 °F /  21.8 °C 9.5 °F /  -12.5 °C 30.00in /  1015.8hPa East 0.9mph /  1.4km/h 4.0mph /  6.4km/h 9% 0.00in /  0mm 696.0 W/m2
09:47 71.4 °F /  21.9 °C 9.7 °F /  -12.4 °C 30.00in /  1015.8hPa Calm   1.0mph /  1.6km/h 9% 0.00in /  0mm 708.0 W/m2
09:53 72.0 °F /  22.2 °C 10.0 °F /  -12.2 °C 30.00in /  1015.8hPa East 2.0mph /  3.2km/h 2.0mph /  3.2km/h 9% 0.00in /  0mm 721.0 W/m2
10:00 72.3 °F /  22.4 °C 7.7 °F /  -13.5 °C 29.99in /  1015.5hPa ENE 2.0mph /  3.2km/h 4.0mph /  6.4km/h 8% 0.00in /  0mm 735.0 W/m2
10:06 72.9 °F /  22.7 °C 8.1 °F /  -13.3 °C 29.99in /  1015.5hPa NE 2.0mph /  3.2km/h 2.0mph /  3.2km/h 8% 0.00in /  0mm 752.0 W/m2
10:12 73.2 °F /  22.9 °C 8.4 °F /  -13.1 °C 29.99in /  1015.5hPa NNE 0.9mph /  1.4km/h 7.0mph /  11.3km/h 8% 0.00in /  0mm 765.0 W/m2
10:18 73.4 °F /  23 °C 11.1 °F /  -11.6 °C 29.99in /  1015.5hPa Calm   1.0mph /  1.6km/h 9% 0.00in /  0mm 773.0 W/m2
10:24 73.6 °F /  23.1 °C 5.7 °F /  -14.6 °C 29.99in /  1015.5hPa Calm   4.0mph /  6.4km/h 7% 0.00in /  0mm 786.0 W/m2
10:30 73.8 °F /  23.2 °C 8.8 °F /  -12.9 °C 29.98in /  1015.1hPa ENE 2.0mph /  3.2km/h 2.0mph /  3.2km/h 8% 0.00in /  0mm 793.0 W/m2
10:37 74.1 °F /  23.4 °C 6.1 °F /  -14.4 °C 29.99in /  1015.5hPa Calm     7% 0.00in /  0mm 803.0 W/m2
10:43 74.1 °F /  23.4 °C 9.0 °F /  -12.8 °C 29.99in /  1015.5hPa SE 2.9mph /  4.7km/h 7.0mph /  11.3km/h 8% 0.00in /  0mm 814.0 W/m2
10:49 74.7 °F /  23.7 °C 6.4 °F /  -14.2 °C 29.98in /  1015.1hPa ENE 2.9mph /  4.7km/h 5.0mph /  8km/h 7% 0.00in /  0mm 816.0 W/m2
10:57 75.0 °F /  23.9 °C 3.4 °F /  -15.9 °C 29.98in /  1015.1hPa Calm   6.0mph /  9.7km/h 6% 0.00in /  0mm 826.0 W/m2
11:03 75.2 °F /  24 °C 3.6 °F /  -15.8 °C 29.98in /  1015.1hPa Calm   3.0mph /  4.8km/h 6% 0.00in /  0mm 833.0 W/m2
11:09 75.6 °F /  24.2 °C 3.7 °F /  -15.7 °C 29.97in /  1014.8hPa Calm   7.0mph /  11.3km/h 6% 0.00in /  0mm 838.0 W/m2
11:15 76.1 °F /  24.5 °C -4.5 °F /  -20.3 °C 29.97in /  1014.8hPa Calm   1.0mph /  1.6km/h 4% 0.00in /  0mm 840.0 W/m2
11:21 75.7 °F /  24.3 °C 3.9 °F /  -15.6 °C 29.97in /  1014.8hPa SSE 0.9mph /  1.4km/h 3.0mph /  4.8km/h 6% 0.00in /  0mm 844.0 W/m2
11:27 75.7 °F /  24.3 °C 3.9 °F /  -15.6 °C 29.97in /  1014.8hPa NNE 4.0mph /  6.4km/h 6.0mph /  9.7km/h 6% 0.00in /  0mm 849.0 W/m2
11:34 75.7 °F /  24.3 °C 0.0 °F /  -17.8 °C 29.97in /  1014.8hPa SW 0.9mph /  1.4km/h 5.0mph /  8km/h 5% 0.00in /  0mm 849.0 W/m2
11:40 74.8 °F /  23.8 °C 3.2 °F /  -16 °C 29.97in /  1014.8hPa Calm     6% 0.00in /  0mm 849.0 W/m2
11:46 75.0 °F /  23.9 °C 3.4 °F /  -15.9 °C 29.96in /  1014.4hPa Calm   1.0mph /  1.6km/h 6% 0.00in /  0mm 851.0 W/m2
11:52 75.4 °F /  24.1 °C 3.6 °F /  -15.8 °C 29.96in /  1014.4hPa West 2.9mph /  4.7km/h 6.0mph /  9.7km/h 6% 0.00in /  0mm 849.0 W/m2
11:58 75.6 °F /  24.2 °C 3.7 °F /  -15.7 °C 29.96in /  1014.4hPa SSW 0.9mph /  1.4km/h 2.0mph /  3.2km/h 6% 0.00in /  0mm 851.0 W/m2
12:04 75.9 °F /  24.4 °C 4.1 °F /  -15.5 °C 29.96in /  1014.4hPa Calm   2.0mph /  3.2km/h 6% 0.00in /  0mm 849.0 W/m2
12:10 75.9 °F /  24.4 °C 0.1 °F /  -17.7 °C 29.96in /  1014.4hPa Calm   2.0mph /  3.2km/h 5% 0.00in /  0mm 844.0 W/m2
12:17 76.1 °F /  24.5 °C 0.3 °F /  -17.6 °C 29.96in /  1014.4hPa Calm     5% 0.00in /  0mm 842.0 W/m2
12:22 76.3 °F /  24.6 °C 0.3 °F /  -17.6 °C 29.96in /  1014.4hPa WSW 2.9mph /  4.7km/h 4.0mph /  6.4km/h 5% 0.00in /  0mm 837.0 W/m2
12:28 76.1 °F /  24.5 °C 0.3 °F /  -17.6 °C 29.96in /  1014.4hPa Calm   2.0mph /  3.2km/h 5% 0.00in /  0mm 833.0 W/m2
12:35 76.5 °F /  24.7 °C 0.5 °F /  -17.5 °C 29.95in /  1014.1hPa WSW 2.0mph /  3.2km/h 4.0mph /  6.4km/h 5% 0.00in /  0mm 828.0 W/m2
12:41 76.5 °F /  24.7 °C 4.5 °F /  -15.3 °C 29.95in /  1014.1hPa Calm   1.0mph /  1.6km/h 6% 0.00in /  0mm 824.0 W/m2
12:46 76.5 °F /  24.7 °C 0.5 °F /  -17.5 °C 29.95in /  1014.1hPa West 2.0mph /  3.2km/h 2.0mph /  3.2km/h 5% 0.00in /  0mm 816.0 W/m2
12:52 77.0 °F /  25 °C 0.9 °F /  -17.3 °C 29.94in /  1013.8hPa Calm   1.0mph /  1.6km/h 5% 0.00in /  0mm 810.0 W/m2
12:58 77.5 °F /  25.3 °C 1.2 °F /  -17.1 °C 29.94in /  1013.8hPa SW 0.9mph /  1.4km/h 3.0mph /  4.8km/h 5% 0.00in /  0mm 803.0 W/m2
13:04 77.5 °F /  25.3 °C 1.2 °F /  -17.1 °C 29.93in /  1013.4hPa Calm   3.0mph /  4.8km/h 5% 0.00in /  0mm 798.0 W/m2
13:11 77.7 °F /  25.4 °C 1.4 °F /  -17 °C 29.93in /  1013.4hPa Calm   4.0mph /  6.4km/h 5% 0.00in /  0mm 782.0 W/m2
13:17 78.4 °F /  25.8 °C 1.9 °F /  -16.7 °C 29.93in /  1013.4hPa NNW 2.9mph /  4.7km/h 4.0mph /  6.4km/h 5% 0.00in /  0mm 775.0 W/m2
13:23 79.2 °F /  26.2 °C 2.5 °F /  -16.4 °C 29.93in /  1013.4hPa WSW 2.0mph /  3.2km/h 5.0mph /  8km/h 5% 0.00in /  0mm 763.0 W/m2
13:29 79.3 °F /  26.3 °C -2.2 °F /  -19 °C 29.93in /  1013.4hPa NNE 2.9mph /  4.7km/h 9.0mph /  14.5km/h 4% 0.00in /  0mm 752.0 W/m2
13:35 79.5 °F /  26.4 °C -2.0 °F /  -18.9 °C 29.92in /  1013.1hPa Calm   3.0mph /  4.8km/h 4% 0.00in /  0mm 742.0 W/m2
13:41 79.7 °F /  26.5 °C -2.0 °F /  -18.9 °C 29.92in /  1013.1hPa Calm   1.0mph /  1.6km/h 4% 0.00in /  0mm 728.0 W/m2
13:47 80.1 °F /  26.7 °C 3.0 °F /  -16.1 °C 29.92in /  1013.1hPa Calm   2.0mph /  3.2km/h 5% 0.00in /  0mm 714.0 W/m2
13:53 80.2 °F /  26.8 °C -1.7 °F /  -18.7 °C 29.92in /  1013.1hPa Calm   2.0mph /  3.2km/h 4% 0.00in /  0mm 701.0 W/m2
13:59 80.6 °F /  27 °C 3.4 °F /  -15.9 °C 29.92in /  1013.1hPa Calm   4.0mph /  6.4km/h 5% 0.00in /  0mm 684.0 W/m2
14:05 80.8 °F /  27.1 °C 3.6 °F /  -15.8 °C 29.92in /  1013.1hPa SSE 2.9mph /  4.7km/h 6.0mph /  9.7km/h 5% 0.00in /  0mm 671.0 W/m2
14:11 80.4 °F /  26.9 °C -1.5 °F /  -18.6 °C 29.91in /  1012.8hPa NNE 2.9mph /  4.7km/h 3.0mph /  4.8km/h 4% 0.00in /  0mm 657.0 W/m2
14:17 80.2 °F /  26.8 °C -1.7 °F /  -18.7 °C 29.91in /  1012.8hPa Calm   2.0mph /  3.2km/h 4% 0.00in /  0mm 643.0 W/m2
14:23 80.1 °F /  26.7 °C -1.7 °F /  -18.7 °C 29.91in /  1012.8hPa Calm   4.0mph /  6.4km/h 4% 0.00in /  0mm 628.0 W/m2
14:29 80.2 °F /  26.8 °C 3.2 °F /  -16 °C 29.91in /  1012.8hPa Calm   3.0mph /  4.8km/h 5% 0.00in /  0mm 612.0 W/m2
14:35 80.1 °F /  26.7 °C 3.0 °F /  -16.1 °C 29.91in /  1012.8hPa WSW 0.9mph /  1.4km/h 3.0mph /  4.8km/h 5% 0.00in /  0mm 594.0 W/m2
14:41 80.4 °F /  26.9 °C 3.4 °F /  -15.9 °C 29.91in /  1012.8hPa SW 0.9mph /  1.4km/h 2.0mph /  3.2km/h 5% 0.00in /  0mm 577.0 W/m2
14:47 80.4 °F /  26.9 °C -1.5 °F /  -18.6 °C 29.91in /  1012.8hPa NE 0.9mph /  1.4km/h 2.0mph /  3.2km/h 4% 0.00in /  0mm 559.0 W/m2
14:53 80.4 °F /  26.9 °C -1.5 °F /  -18.6 °C 29.90in /  1012.4hPa SW 0.9mph /  1.4km/h 9.0mph /  14.5km/h 4% 0.00in /  0mm 541.0 W/m2
14:59 80.4 °F /  26.9 °C -1.5 °F /  -18.6 °C 29.91in /  1012.8hPa Calm   6.0mph /  9.7km/h 4% 0.00in /  0mm 524.0 W/m2
15:05 80.4 °F /  26.9 °C -1.5 °F /  -18.6 °C 29.91in /  1012.8hPa NW 0.9mph /  1.4km/h 5.0mph /  8km/h 4% 0.00in /  0mm 503.0 W/m2
15:11 80.4 °F /  26.9 °C -1.5 °F /  -18.6 °C 29.91in /  1012.8hPa WSW 2.0mph /  3.2km/h 6.0mph /  9.7km/h 4% 0.00in /  0mm 482.0 W/m2
15:17 80.2 °F /  26.8 °C -1.7 °F /  -18.7 °C 29.90in /  1012.4hPa Calm   2.0mph /  3.2km/h 4% 0.00in /  0mm 462.0 W/m2
15:23 80.4 °F /  26.9 °C -1.5 °F /  -18.6 °C 29.90in /  1012.4hPa WSW 2.9mph /  4.7km/h 3.0mph /  4.8km/h 4% 0.00in /  0mm 443.0 W/m2
15:29 80.1 °F /  26.7 °C -1.7 °F /  -18.7 °C 29.90in /  1012.4hPa SW 2.9mph /  4.7km/h 8.0mph /  12.9km/h 4% 0.00in /  0mm 422.0 W/m2
15:35 79.5 °F /  26.4 °C -2.0 °F /  -18.9 °C 29.91in /  1012.8hPa West 2.9mph /  4.7km/h 6.0mph /  9.7km/h 4% 0.00in /  0mm 403.0 W/m2
15:41 79.3 °F /  26.3 °C -2.2 °F /  -19 °C 29.90in /  1012.4hPa SE 2.0mph /  3.2km/h 5.0mph /  8km/h 4% 0.00in /  0mm 381.0 W/m2
15:47 79.9 °F /  26.6 °C -1.8 °F /  -18.8 °C 29.91in /  1012.8hPa Calm   4.0mph /  6.4km/h 4% 0.00in /  0mm 357.0 W/m2
15:53 80.1 °F /  26.7 °C -1.7 °F /  -18.7 °C 29.91in /  1012.8hPa SSW 0.9mph /  1.4km/h 1.0mph /  1.6km/h 4% 0.00in /  0mm 338.0 W/m2
15:59 79.9 °F /  26.6 °C -1.8 °F /  -18.8 °C 29.91in /  1012.8hPa SSE 4.0mph /  6.4km/h 7.0mph /  11.3km/h 4% 0.00in /  0mm 313.0 W/m2
16:05 79.2 °F /  26.2 °C -2.4 °F /  -19.1 °C 29.91in /  1012.8hPa SW 2.0mph /  3.2km/h 6.0mph /  9.7km/h 4% 0.00in /  0mm 294.0 W/m2
16:11 78.8 °F /  26 °C 2.1 °F /  -16.6 °C 29.91in /  1012.8hPa SSE 2.0mph /  3.2km/h 3.0mph /  4.8km/h 5% 0.00in /  0mm 109.0 W/m2
16:17 78.4 °F /  25.8 °C 1.9 °F /  -16.7 °C 29.91in /  1012.8hPa ESE 2.9mph /  4.7km/h 7.0mph /  11.3km/h 5% 0.00in /  0mm 42.0 W/m2
16:23 78.1 °F /  25.6 °C 1.6 °F /  -16.9 °C 29.91in /  1012.8hPa South 6.0mph /  9.7km/h 8.0mph /  12.9km/h 5% 0.00in /  0mm 60.0 W/m2
16:29 77.5 °F /  25.3 °C 1.2 °F /  -17.1 °C 29.91in /  1012.8hPa SSW 4.9mph /  7.9km/h 7.0mph /  11.3km/h 5% 0.00in /  0mm 97.0 W/m2
16:35 77.2 °F /  25.1 °C 1.0 °F /  -17.2 °C 29.91in /  1012.8hPa SSW 0.9mph /  1.4km/h 9.0mph /  14.5km/h 5% 0.00in /  0mm 123.0 W/m2
16:41 76.6 °F /  24.8 °C 4.5 °F /  -15.3 °C 29.91in /  1012.8hPa South 2.0mph /  3.2km/h 10.0mph /  16.1km/h 6% 0.00in /  0mm 54.0 W/m2
16:47 76.3 °F /  24.6 °C 0.3 °F /  -17.6 °C 29.91in /  1012.8hPa Calm   6.0mph /  9.7km/h 5% 0.00in /  0mm 63.0 W/m2
16:53 75.9 °F /  24.4 °C 4.1 °F /  -15.5 °C 29.91in /  1012.8hPa SSW 0.9mph /  1.4km/h 8.0mph /  12.9km/h 6% 0.00in /  0mm 44.0 W/m2
16:59 75.4 °F /  24.1 °C 3.6 °F /  -15.8 °C 29.91in /  1012.8hPa SE 4.9mph /  7.9km/h 8.0mph /  12.9km/h 6% 0.00in /  0mm 28.0 W/m2
17:07 74.5 °F /  23.6 °C 3.0 °F /  -16.1 °C 29.92in /  1013.1hPa SE 6.0mph /  9.7km/h 6.0mph /  9.7km/h 6% 0.00in /  0mm 26.0 W/m2
17:13 73.9 °F /  23.3 °C 5.9 °F /  -14.5 °C 29.92in /  1013.1hPa SSW 8.9mph /  14.3km/h 9.0mph /  14.5km/h 7% 0.00in /  0mm 18.0 W/m2
17:19 73.4 °F /  23 °C 5.5 °F /  -14.7 °C 29.92in /  1013.1hPa SSW 0.9mph /  1.4km/h 7.0mph /  11.3km/h 7% 0.00in /  0mm 14.0 W/m2
17:25 72.9 °F /  22.7 °C 5.2 °F /  -14.9 °C 29.92in /  1013.1hPa SW 4.9mph /  7.9km/h 8.0mph /  12.9km/h 7% 0.00in /  0mm 11.0 W/m2
17:31 72.1 °F /  22.3 °C 4.6 °F /  -15.2 °C 29.93in /  1013.4hPa SSW 4.0mph /  6.4km/h 5.0mph /  8km/h 7% 0.00in /  0mm 7.0 W/m2
17:37 71.4 °F /  21.9 °C 4.1 °F /  -15.5 °C 29.93in /  1013.4hPa SSW 4.9mph /  7.9km/h 6.0mph /  9.7km/h 7% 0.00in /  0mm 5.0 W/m2
17:43 71.1 °F /  21.7 °C 3.9 °F /  -15.6 °C 29.93in /  1013.4hPa South 2.9mph /  4.7km/h 8.0mph /  12.9km/h 7% 0.00in /  0mm 0.0 W/m2
17:49 70.3 °F /  21.3 °C 3.4 °F /  -15.9 °C 29.93in /  1013.4hPa South 0.9mph /  1.4km/h 5.0mph /  8km/h 7% 0.00in /  0mm 0.0 W/m2
17:55 70.0 °F /  21.1 °C 3.0 °F /  -16.1 °C 29.93in /  1013.4hPa South 2.0mph /  3.2km/h 3.0mph /  4.8km/h 7% 0.00in /  0mm 0.0 W/m2
18:01 69.4 °F /  20.8 °C 5.5 °F /  -14.7 °C 29.94in /  1013.8hPa Calm   3.0mph /  4.8km/h 8% 0.00in /  0mm 0.0 W/m2
18:07 68.9 °F /  20.5 °C 5.2 °F /  -14.9 °C 29.94in /  1013.8hPa SSE 0.9mph /  1.4km/h 5.0mph /  8km/h 8% 0.00in /  0mm 0.0 W/m2
18:13 68.5 °F /  20.3 °C 4.8 °F /  -15.1 °C 29.94in /  1013.8hPa SE 8.1mph /  13km/h 12.0mph /  19.3km/h 8% 0.00in /  0mm 0.0 W/m2
18:19 68.2 °F /  20.1 °C 7.2 °F /  -13.8 °C 29.94in /  1013.8hPa SSE 0.9mph /  1.4km/h 6.0mph /  9.7km/h 9% 0.00in /  0mm 0.0 W/m2
18:25 67.8 °F /  19.9 °C 7.0 °F /  -13.9 °C 29.94in /  1013.8hPa SSE 6.0mph /  9.7km/h 8.0mph /  12.9km/h 9% 0.00in /  0mm 0.0 W/m2
18:31 67.6 °F /  19.8 °C 6.8 °F /  -14 °C 29.95in /  1014.1hPa SSW 0.9mph /  1.4km/h 8.0mph /  12.9km/h 9% 0.00in /  0mm 0.0 W/m2
18:37 67.5 °F /  19.7 °C 6.6 °F /  -14.1 °C 29.95in /  1014.1hPa SE 4.0mph /  6.4km/h 9.0mph /  14.5km/h 9% 0.00in /  0mm 0.0 W/m2
18:43 67.3 °F /  19.6 °C 8.8 °F /  -12.9 °C 29.95in /  1014.1hPa SE 2.0mph /  3.2km/h 7.0mph /  11.3km/h 10% 0.00in /  0mm 0.0 W/m2
18:49 66.9 °F /  19.4 °C 8.6 °F /  -13 °C 29.96in /  1014.4hPa Calm   5.0mph /  8km/h 10% 0.00in /  0mm 0.0 W/m2
18:55 66.7 °F /  19.3 °C 8.4 °F /  -13.1 °C 29.96in /  1014.4hPa Calm   3.0mph /  4.8km/h 10% 0.00in /  0mm 0.0 W/m2
19:01 66.6 °F /  19.2 °C 8.2 °F /  -13.2 °C 29.96in /  1014.4hPa ENE 0.9mph /  1.4km/h 7.0mph /  11.3km/h 10% 0.00in /  0mm 0.0 W/m2
19:07 66.0 °F /  18.9 °C 7.9 °F /  -13.4 °C 29.97in /  1014.8hPa East 2.0mph /  3.2km/h 2.0mph /  3.2km/h 10% 0.00in /  0mm 0.0 W/m2
19:13 65.7 °F /  18.7 °C 9.7 °F /  -12.4 °C 29.97in /  1014.8hPa Calm     11% 0.00in /  0mm 0.0 W/m2
19:19 65.1 °F /  18.4 °C 9.3 °F /  -12.6 °C 29.97in /  1014.8hPa Calm   5.0mph /  8km/h 11% 0.00in /  0mm 0.0 W/m2
19:25 64.9 °F /  18.3 °C 9.1 °F /  -12.7 °C 29.98in /  1015.1hPa WSW 2.0mph /  3.2km/h 4.0mph /  6.4km/h 11% 0.00in /  0mm 0.0 W/m2
19:31 64.8 °F /  18.2 °C 10.9 °F /  -11.7 °C 29.98in /  1015.1hPa Calm   1.0mph /  1.6km/h 12% 0.00in /  0mm 0.0 W/m2
19:37 64.2 °F /  17.9 °C 10.6 °F /  -11.9 °C 29.98in /  1015.1hPa Calm   1.0mph /  1.6km/h 12% 0.00in /  0mm 0.0 W/m2
19:43 63.3 °F /  17.4 °C 9.9 °F /  -12.3 °C 29.98in /  1015.1hPa SSW 0.9mph /  1.4km/h 1.0mph /  1.6km/h 12% 0.00in /  0mm 0.0 W/m2
19:49 62.8 °F /  17.1 °C 9.3 °F /  -12.6 °C 29.98in /  1015.1hPa Calm   2.0mph /  3.2km/h 12% 0.00in /  0mm 0.0 W/m2
19:55 62.4 °F /  16.9 °C 9.1 °F /  -12.7 °C 29.98in /  1015.1hPa SE 2.0mph /  3.2km/h 4.0mph /  6.4km/h 12% 0.00in /  0mm 0.0 W/m2
20:01 62.2 °F /  16.8 °C 9.0 °F /  -12.8 °C 29.99in /  1015.5hPa Calm   3.0mph /  4.8km/h 12% 0.00in /  0mm 0.0 W/m2
20:07 62.2 °F /  16.8 °C 10.8 °F /  -11.8 °C 29.99in /  1015.5hPa ESE 0.9mph /  1.4km/h 2.0mph /  3.2km/h 13% 0.00in /  0mm 0.0 W/m2
20:13 62.1 °F /  16.7 °C 10.6 °F /  -11.9 °C 29.99in /  1015.5hPa SE 0.9mph /  1.4km/h 4.0mph /  6.4km/h 13% 0.00in /  0mm 0.0 W/m2
20:19 61.9 °F /  16.6 °C 10.4 °F /  -12 °C 29.99in /  1015.5hPa SSE 0.9mph /  1.4km/h 4.0mph /  6.4km/h 13% 0.00in /  0mm 0.0 W/m2
20:25 61.7 °F /  16.5 °C 10.4 °F /  -12 °C 29.99in /  1015.5hPa South 2.0mph /  3.2km/h 2.0mph /  3.2km/h 13% 0.00in /  0mm 0.0 W/m2
20:31 61.2 °F /  16.2 °C 9.9 °F /  -12.3 °C 29.99in /  1015.5hPa Calm   2.0mph /  3.2km/h 13% 0.00in /  0mm 0.0 W/m2
20:37 60.6 °F /  15.9 °C 9.5 °F /  -12.5 °C 29.99in /  1015.5hPa SE 2.0mph /  3.2km/h 2.0mph /  3.2km/h 13% 0.00in /  0mm 0.0 W/m2
20:43 60.3 °F /  15.7 °C 10.9 °F /  -11.7 °C 29.99in /  1015.5hPa Calm     14% 0.00in /  0mm 0.0 W/m2
20:49 59.7 °F /  15.4 °C 12.0 °F /  -11.1 °C 29.99in /  1015.5hPa Calm     15% 0.00in /  0mm 0.0 W/m2
20:55 59.4 °F /  15.2 °C 11.7 °F /  -11.3 °C 29.99in /  1015.5hPa Calm     15% 0.00in /  0mm 0.0 W/m2
21:01 58.6 °F /  14.8 °C 11.1 °F /  -11.6 °C 29.99in /  1015.5hPa Calm     15% 0.00in /  0mm 0.0 W/m2
21:07 58.3 °F /  14.6 °C 12.2 °F /  -11 °C 30.00in /  1015.8hPa Calm     16% 0.00in /  0mm 0.0 W/m2
21:13 57.6 °F /  14.2 °C 11.7 °F /  -11.3 °C 30.00in /  1015.8hPa Calm     16% 0.00in /  0mm 0.0 W/m2
21:19 57.0 °F /  13.9 °C 12.6 °F /  -10.8 °C 30.00in /  1015.8hPa Calm   1.0mph /  1.6km/h 17% 0.00in /  0mm 0.0 W/m2
21:25 56.5 °F /  13.6 °C 10.8 °F /  -11.8 °C 30.00in /  1015.8hPa Calm     16% 0.00in /  0mm 0.0 W/m2
21:31 56.1 °F /  13.4 °C 11.8 °F /  -11.2 °C 30.00in /  1015.8hPa Calm     17% 0.00in /  0mm 0.0 W/m2
21:37 55.8 °F /  13.2 °C 12.9 °F /  -10.6 °C 30.00in /  1015.8hPa Calm     18% 0.00in /  0mm 0.0 W/m2
21:43 55.2 °F /  12.9 °C 12.4 °F /  -10.9 °C 30.00in /  1015.8hPa Calm   1.0mph /  1.6km/h 18% 0.00in /  0mm 0.0 W/m2
21:49 54.9 °F /  12.7 °C 12.2 °F /  -11 °C 30.00in /  1015.8hPa Calm   2.0mph /  3.2km/h 18% 0.00in /  0mm 0.0 W/m2
21:55 54.5 °F /  12.5 °C 10.6 °F /  -11.9 °C 30.01in /  1016.1hPa Calm     17% 0.00in /  0mm 0.0 W/m2
22:01 54.3 °F /  12.4 °C 10.4 °F /  -12 °C 30.00in /  1015.8hPa Calm   3.0mph /  4.8km/h 17% 0.00in /  0mm 0.0 W/m2
22:07 54.3 °F /  12.4 °C 11.7 °F /  -11.3 °C 30.01in /  1016.1hPa Calm   2.0mph /  3.2km/h 18% 0.00in /  0mm 0.0 W/m2
22:14 54.7 °F /  12.6 °C 10.8 °F /  -11.8 °C 30.00in /  1015.8hPa ENE 0.9mph /  1.4km/h 1.0mph /  1.6km/h 17% 0.00in /  0mm 0.0 W/m2
22:20 54.7 °F /  12.6 °C 10.8 °F /  -11.8 °C 30.00in /  1015.8hPa East 0.9mph /  1.4km/h 2.0mph /  3.2km/h 17% 0.00in /  0mm 0.0 W/m2
22:26 54.7 °F /  12.6 °C 10.8 °F /  -11.8 °C 30.00in /  1015.8hPa Calm   5.0mph /  8km/h 17% 0.00in /  0mm 0.0 W/m2
22:32 54.5 °F /  12.5 °C 10.6 °F /  -11.9 °C 30.00in /  1015.8hPa East 0.9mph /  1.4km/h 2.0mph /  3.2km/h 17% 0.00in /  0mm 0.0 W/m2
22:38 54.5 °F /  12.5 °C 10.6 °F /  -11.9 °C 30.00in /  1015.8hPa Calm   2.0mph /  3.2km/h 17% 0.00in /  0mm 0.0 W/m2
22:44 54.5 °F /  12.5 °C 10.6 °F /  -11.9 °C 30.00in /  1015.8hPa Calm   1.0mph /  1.6km/h 17% 0.00in /  0mm 0.0 W/m2
22:50 54.7 °F /  12.6 °C 10.8 °F /  -11.8 °C 30.00in /  1015.8hPa ESE 0.9mph /  1.4km/h 3.0mph /  4.8km/h 17% 0.00in /  0mm 0.0 W/m2
22:56 54.3 °F /  12.4 °C 10.4 °F /  -12 °C 30.00in /  1015.8hPa Calm     17% 0.00in /  0mm 0.0 W/m2
23:02 54.3 °F /  12.4 °C 10.4 °F /  -12 °C 30.00in /  1015.8hPa Calm   2.0mph /  3.2km/h 17% 0.00in /  0mm 0.0 W/m2
23:08 54.1 °F /  12.3 °C 11.5 °F /  -11.4 °C 30.00in /  1015.8hPa Calm     18% 0.00in /  0mm 0.0 W/m2
23:14 53.8 °F /  12.1 °C 10.0 °F /  -12.2 °C 30.00in /  1015.8hPa Calm   1.0mph /  1.6km/h 17% 0.00in /  0mm 0.0 W/m2
23:20 53.4 °F /  11.9 °C 10.9 °F /  -11.7 °C 30.00in /  1015.8hPa Calm     18% 0.00in /  0mm 0.0 W/m2
23:26 52.9 °F /  11.6 °C 10.6 °F /  -11.9 °C 30.00in /  1015.8hPa Calm   3.0mph /  4.8km/h 18% 0.00in /  0mm 0.0 W/m2
23:32 52.7 °F /  11.5 °C 10.4 °F /  -12 °C 30.00in /  1015.8hPa Calm   2.0mph /  3.2km/h 18% 0.00in /  0mm 0.0 W/m2
23:39 52.5 °F /  11.4 °C 10.2 °F /  -12.1 °C 29.99in /  1015.5hPa Calm   2.0mph /  3.2km/h 18% 0.00in /  0mm 0.0 W/m2
23:45 52.7 °F /  11.5 °C 10.4 °F /  -12 °C 30.00in /  1015.8hPa East 0.9mph /  1.4km/h 2.0mph /  3.2km/h 18% 0.00in /  0mm 0.0 W/m2
23:51 52.7 °F /  11.5 °C 10.4 °F /  -12 °C 29.99in /  1015.5hPa East 2.9mph /  4.7km/h 3.0mph /  4.8km/h 18% 0.00in /  0mm 0.0 W/m2
23:57 52.7 °F /  11.5 °C 10.4 °F /  -12 °C 30.00in /  1015.8hPa Calm   4.0mph /  6.4km/h 18% 0.00in /  0mm 0.0 W/m2
Olympia, Windhoek, Namibia
Compliments of Weather Underground - 3 mb